createdAt,value
2018-06-15T00:00:53.424Z,23.93
2018-06-15T00:03:21.716Z,23.47
2018-06-15T00:05:50.010Z,22.70
2018-06-15T00:08:18.430Z,24.10
2018-06-15T00:10:46.802Z,26.70
2018-06-15T00:13:15.179Z,24.83
2018-06-15T00:15:43.578Z,25.27
2018-06-15T00:18:11.946Z,24.87
2018-06-15T00:20:40.373Z,26.53
2018-06-15T00:23:08.731Z,26.63
2018-06-15T00:25:37.043Z,26.50
2018-06-15T00:28:05.393Z,26.77
2018-06-15T00:30:33.666Z,26.73
2018-06-15T00:33:02.109Z,28.40
2018-06-15T00:35:30.438Z,28.27
2018-06-15T00:37:58.758Z,27.53
2018-06-15T00:40:27.024Z,27.43
2018-06-15T00:42:55.351Z,26.57
2018-06-15T00:45:23.628Z,27.40
2018-06-15T00:47:51.953Z,27.77
2018-06-15T00:50:20.259Z,27.47
2018-06-15T00:52:48.601Z,28.17
2018-06-15T00:55:16.886Z,27.90
2018-06-15T00:57:47.668Z,26.60
2018-06-15T01:00:16.418Z,25.53
2018-06-15T01:02:44.806Z,25.27
2018-06-15T01:05:13.118Z,26.13
2018-06-15T01:07:41.967Z,24.30
2018-06-15T01:10:10.329Z,27.30
2018-06-15T01:12:38.680Z,25.13
2018-06-15T01:15:07.207Z,24.93
2018-06-15T01:17:35.609Z,28.27
2018-06-15T01:20:06.866Z,28.57
2018-06-15T01:22:35.234Z,25.00
2018-06-15T01:25:03.617Z,22.93
2018-06-15T01:27:32.017Z,25.93
2018-06-15T01:30:00.327Z,28.47
2018-06-15T01:32:28.649Z,25.23
2018-06-15T01:34:56.919Z,28.63
2018-06-15T01:37:25.239Z,26.23
2018-06-15T01:39:53.641Z,28.30
2018-06-15T01:42:21.934Z,27.80
2018-06-15T01:44:50.269Z,24.80
2018-06-15T01:47:18.594Z,25.30
2018-06-15T01:49:47.029Z,28.17
2018-06-15T01:52:15.374Z,25.70
2018-06-15T01:54:43.817Z,25.43
2018-06-15T01:57:12.188Z,26.50
2018-06-15T01:59:40.502Z,26.87
2018-06-15T02:02:08.826Z,27.57
2018-06-15T02:04:37.147Z,25.53
2018-06-15T02:07:05.425Z,26.87
2018-06-15T02:09:33.750Z,27.63
2018-06-15T02:12:02.038Z,26.07
2018-06-15T02:14:30.407Z,25.33
2018-06-15T02:16:58.682Z,25.10
2018-06-15T02:19:26.986Z,25.13
2018-06-15T02:21:55.327Z,27.67
2018-06-15T02:24:23.911Z,26.70
2018-06-15T02:26:52.298Z,27.27
2018-06-15T02:29:20.851Z,28.50
2018-06-15T02:31:49.190Z,28.07
2018-06-15T02:34:17.501Z,26.63
2018-06-15T02:36:45.802Z,28.73
2018-06-15T02:39:14.151Z,28.30
2018-06-15T02:41:42.518Z,29.27
2018-06-15T02:44:10.867Z,27.47
2018-06-15T02:46:39.158Z,27.57
2018-06-15T02:49:07.604Z,28.80
2018-06-15T02:51:35.916Z,30.43
2018-06-15T02:54:04.325Z,26.40
2018-06-15T02:56:32.690Z,27.50
2018-06-15T02:59:01.068Z,29.40
2018-06-15T03:01:29.373Z,25.77
2018-06-15T03:03:57.826Z,26.60
2018-06-15T03:06:27.059Z,27.47
2018-06-15T03:08:55.422Z,30.37
2018-06-15T03:11:23.881Z,25.80
2018-06-15T03:13:52.213Z,25.87
2018-06-15T03:16:20.700Z,25.70
2018-06-15T03:18:49.058Z,25.47
2018-06-15T03:21:17.450Z,26.60
2018-06-15T03:23:45.772Z,26.13
2018-06-15T03:26:14.277Z,27.00
2018-06-15T03:28:43.177Z,27.63
2018-06-15T03:31:12.134Z,27.30
2018-06-15T03:33:40.426Z,28.60
2018-06-15T03:36:08.774Z,29.53
2018-06-15T03:38:37.209Z,25.57
2018-06-15T03:41:05.707Z,26.93
2018-06-15T03:43:33.986Z,29.00
2018-06-15T03:46:02.655Z,29.30
2018-06-15T03:48:30.955Z,28.97
2018-06-15T03:50:59.279Z,31.97
2018-06-15T03:53:27.613Z,30.13
2018-06-15T03:55:56.138Z,29.73
2018-06-15T03:58:24.542Z,29.67
2018-06-15T04:00:52.867Z,30.43
2018-06-15T04:03:21.203Z,33.90
2018-06-15T04:05:49.593Z,33.50
2018-06-15T04:08:18.178Z,32.97
2018-06-15T04:10:46.562Z,35.07
2018-06-15T04:13:19.012Z,34.43
2018-06-15T04:18:47.920Z,33.67
2018-06-15T04:21:16.446Z,32.03
2018-06-15T04:23:44.725Z,36.43
2018-06-15T04:26:13.185Z,33.60
2018-06-15T04:28:41.650Z,34.07
2018-06-15T04:31:10.394Z,35.37
2018-06-15T04:33:38.738Z,35.67
2018-06-15T04:36:07.198Z,39.57
2018-06-15T04:38:35.597Z,31.63
2018-06-15T04:41:03.972Z,34.67
2018-06-15T04:43:32.263Z,34.43
2018-06-15T04:46:00.990Z,31.90
2018-06-15T04:48:29.401Z,33.47
2018-06-15T04:50:57.965Z,34.37
2018-06-15T04:53:26.341Z,34.37
2018-06-15T04:55:54.695Z,33.30
2018-06-15T04:58:23.162Z,35.03
2018-06-15T05:00:51.781Z,32.00
2018-06-15T05:03:22.149Z,32.07
2018-06-15T05:05:50.762Z,35.07
2018-06-15T05:08:19.402Z,33.03
2018-06-15T05:10:47.795Z,33.17
2018-06-15T05:13:16.117Z,30.37
2018-06-15T05:15:44.523Z,33.40
2018-06-15T05:18:12.997Z,32.37
2018-06-15T05:20:42.888Z,40.13
2018-06-15T05:23:11.464Z,38.50
2018-06-15T05:25:40.627Z,37.77
2018-06-15T05:28:09.565Z,36.50
2018-06-15T05:30:37.932Z,37.20
2018-06-15T05:33:06.207Z,35.00
2018-06-15T05:35:34.691Z,35.37
2018-06-15T05:38:03.169Z,38.40
2018-06-15T05:40:31.490Z,35.87
2018-06-15T05:42:59.891Z,34.77
2018-06-15T05:45:28.222Z,34.77
2018-06-15T05:47:56.560Z,34.20
2018-06-15T05:50:24.812Z,36.17
2018-06-15T05:52:53.115Z,35.30
2018-06-15T05:55:21.542Z,34.73
2018-06-15T05:57:49.858Z,35.73
2018-06-15T06:00:18.177Z,33.50
2018-06-15T06:02:46.547Z,31.57
2018-06-15T06:05:17.317Z,36.27
2018-06-15T06:07:45.941Z,33.80
2018-06-15T06:10:14.217Z,32.77
2018-06-15T06:12:42.551Z,33.47
2018-06-15T06:15:10.813Z,30.83
2018-06-15T06:17:39.110Z,31.07
2018-06-15T06:20:08.121Z,32.00
2018-06-15T06:22:36.393Z,32.23
2018-06-15T06:25:04.694Z,33.50
2018-06-15T06:27:32.988Z,29.83
2018-06-15T06:30:01.279Z,31.03
2018-06-15T06:32:29.606Z,33.23
2018-06-15T06:34:57.833Z,29.93
2018-06-15T06:37:26.227Z,29.33
2018-06-15T06:39:54.866Z,28.37
2018-06-15T06:42:23.196Z,30.73
2018-06-15T06:44:51.505Z,28.97
2018-06-15T06:47:19.794Z,24.00
2018-06-15T06:49:48.057Z,23.63
2018-06-15T06:52:16.359Z,22.70
2018-06-15T06:54:44.632Z,21.50
2018-06-15T06:57:13.025Z,21.70
2018-06-15T06:59:41.317Z,21.83
2018-06-15T07:02:09.729Z,22.77
2018-06-15T07:05:41.015Z,22.20
2018-06-15T07:08:11.720Z,20.03
2018-06-15T07:10:40.007Z,19.67
2018-06-15T07:13:08.346Z,25.27
2018-06-15T07:15:36.675Z,22.07
2018-06-15T07:18:05.042Z,22.47
2018-06-15T07:20:33.316Z,19.23
2018-06-15T07:23:01.653Z,17.47
2018-06-15T07:25:29.902Z,16.83
2018-06-15T07:27:58.199Z,16.37
2018-06-15T07:30:26.437Z,14.13
2018-06-15T07:32:54.723Z,13.40
2018-06-15T07:35:22.970Z,14.00
2018-06-15T07:37:51.243Z,13.53
2018-06-15T07:40:19.475Z,13.47
2018-06-15T07:42:47.782Z,9.20
2018-06-15T07:45:16.055Z,9.87
2018-06-15T07:47:44.349Z,11.33
2018-06-15T07:50:12.598Z,9.20
2018-06-15T07:52:40.910Z,9.10
2018-06-15T07:55:09.144Z,10.40
2018-06-15T07:57:37.418Z,8.93
2018-06-15T08:00:05.667Z,8.83
2018-06-15T08:02:33.935Z,8.63
2018-06-15T08:05:02.194Z,8.27
2018-06-15T08:07:30.467Z,7.40
2018-06-15T08:09:58.752Z,8.30
2018-06-15T08:12:26.990Z,6.90
2018-06-15T08:14:55.273Z,7.70
2018-06-15T08:17:23.514Z,7.97
2018-06-15T08:19:51.790Z,9.93
2018-06-15T08:22:20.111Z,8.17
2018-06-15T08:24:48.421Z,8.30
2018-06-15T08:27:16.669Z,7.27
2018-06-15T08:29:45.001Z,8.40
2018-06-15T08:32:13.250Z,14.33
2018-06-15T08:34:41.555Z,8.50
2018-06-15T08:37:09.790Z,7.90
2018-06-15T08:39:38.095Z,8.37
2018-06-15T08:42:06.339Z,9.20
2018-06-15T08:44:34.618Z,7.70
2018-06-15T08:47:02.867Z,8.10
2018-06-15T08:49:31.149Z,8.53
2018-06-15T08:51:59.458Z,7.20
2018-06-15T08:54:27.753Z,7.07
2018-06-15T08:56:56.084Z,6.97
2018-06-15T08:59:24.374Z,6.07
2018-06-15T09:01:52.727Z,6.57
2018-06-15T09:04:21.106Z,6.17
2018-06-15T09:06:49.446Z,6.77
2018-06-15T09:09:17.743Z,6.00
2018-06-15T09:11:46.034Z,6.00
2018-06-15T09:14:14.390Z,6.00
2018-06-15T09:16:42.700Z,6.67
2018-06-15T09:19:10.990Z,7.53
2018-06-15T09:21:39.266Z,7.37
2018-06-15T09:24:07.601Z,6.93
2018-06-15T09:26:35.837Z,7.83
2018-06-15T09:29:04.102Z,7.90
2018-06-15T09:31:32.341Z,6.73
2018-06-15T09:34:00.701Z,8.23
2018-06-15T09:36:28.931Z,9.27
2018-06-15T09:38:57.274Z,10.20
2018-06-15T09:41:25.477Z,9.07
2018-06-15T09:43:53.735Z,10.30
2018-06-15T09:46:22.080Z,8.40
2018-06-15T09:48:50.282Z,8.70
2018-06-15T09:51:18.552Z,8.47
2018-06-15T09:53:46.794Z,8.30
2018-06-15T09:56:15.050Z,8.27
2018-06-15T09:58:43.370Z,8.77
2018-06-15T10:01:12.030Z,8.43
2018-06-15T10:03:40.886Z,9.57
2018-06-15T10:06:09.195Z,8.17
2018-06-15T10:08:37.605Z,9.93
2018-06-15T10:11:06.359Z,7.70
2018-06-15T10:13:34.600Z,8.33
2018-06-15T10:16:02.943Z,8.90
2018-06-15T10:18:31.232Z,8.87
2018-06-15T10:20:59.542Z,8.17
2018-06-15T10:23:27.986Z,8.37
2018-06-15T10:25:56.354Z,7.73
2018-06-15T10:28:24.595Z,7.20
2018-06-15T10:30:53.078Z,7.63
2018-06-15T10:33:21.421Z,9.70
2018-06-15T10:35:49.743Z,7.30
2018-06-15T10:38:18.090Z,8.30
2018-06-15T10:40:46.471Z,7.60
2018-06-15T10:43:15.526Z,9.58
2018-06-15T10:45:43.984Z,8.73
2018-06-15T10:48:12.853Z,8.58
2018-06-15T10:50:41.400Z,7.25
2018-06-15T10:53:09.740Z,7.28
2018-06-15T10:55:38.062Z,6.72
2018-06-15T10:58:06.484Z,8.25
2018-06-15T11:00:34.819Z,7.05
2018-06-15T11:03:03.065Z,7.90
2018-06-15T11:05:31.429Z,7.33
2018-06-15T11:07:59.717Z,6.85
2018-06-15T11:10:28.025Z,6.92
2018-06-15T11:12:56.825Z,7.33
2018-06-15T11:15:25.562Z,8.35
2018-06-15T11:17:53.801Z,8.73
2018-06-15T11:20:22.110Z,7.35
2018-06-15T11:22:50.438Z,6.80
2018-06-15T11:25:18.751Z,6.58
2018-06-15T11:27:47.230Z,7.25
2018-06-15T11:30:15.581Z,8.00
2018-06-15T11:32:43.869Z,6.62
2018-06-15T11:35:12.155Z,6.70
2018-06-15T11:37:40.548Z,6.55
2018-06-15T11:40:08.785Z,6.65
2018-06-15T11:42:37.113Z,8.60
2018-06-15T11:45:05.442Z,9.15
2018-06-15T11:47:34.210Z,7.10
2018-06-15T11:50:02.993Z,8.00
2018-06-15T11:52:31.661Z,7.90
2018-06-15T11:55:00.601Z,7.85
2018-06-15T11:57:30.886Z,7.62
2018-06-15T11:59:59.577Z,8.35
2018-06-15T12:02:28.379Z,7.12
2018-06-15T12:04:56.727Z,8.55
2018-06-15T12:07:25.086Z,7.55
2018-06-15T12:09:53.452Z,8.35
2018-06-15T12:12:21.985Z,7.87
2018-06-15T12:14:50.270Z,7.85
2018-06-15T12:17:18.547Z,6.95
2018-06-15T12:19:46.965Z,7.30
2018-06-15T12:22:15.311Z,7.40
2018-06-15T12:24:43.542Z,7.42
2018-06-15T12:27:11.857Z,7.90
2018-06-15T12:29:40.187Z,7.87
2018-06-15T12:32:09.307Z,7.22
2018-06-15T12:34:38.314Z,9.30
2018-06-15T12:37:06.855Z,8.73
2018-06-15T12:39:35.417Z,7.42
2018-06-15T12:42:03.925Z,8.35
2018-06-15T12:44:32.504Z,7.47
2018-06-15T12:47:01.022Z,7.28
2018-06-15T12:49:29.390Z,6.85
2018-06-15T12:51:57.734Z,6.20
2018-06-15T12:54:26.103Z,7.08
2018-06-15T12:56:54.465Z,6.40
2018-06-15T12:59:22.765Z,7.78
2018-06-15T13:01:51.046Z,6.30
2018-06-15T13:04:19.384Z,7.08
2018-06-15T13:06:47.852Z,6.35
2018-06-15T13:09:16.935Z,6.20
2018-06-15T13:11:46.562Z,6.42
2018-06-15T13:14:15.284Z,6.33
2018-06-15T13:19:33.279Z,7.08
2018-06-15T13:22:04.829Z,6.80
2018-06-15T13:24:39.468Z,7.78
2018-06-15T13:27:13.998Z,7.17
2018-06-15T13:29:48.812Z,8.95
2018-06-15T13:32:32.907Z,7.10
2018-06-15T13:35:40.041Z,6.92
2018-06-15T13:38:15.217Z,7.08
2018-06-15T13:40:47.947Z,7.05
2018-06-15T13:43:20.100Z,6.97
2018-06-15T13:48:29.837Z,7.80
2018-06-15T13:51:03.542Z,6.80
2018-06-15T13:53:36.375Z,7.03
2018-06-15T13:56:14.830Z,6.75
2018-06-15T13:58:54.716Z,6.55
2018-06-15T14:01:31.669Z,7.33
2018-06-15T14:04:01.771Z,7.35
2018-06-15T14:06:30.440Z,7.53
2018-06-15T14:08:59.694Z,8.33
2018-06-15T14:11:28.118Z,7.65
2018-06-15T14:13:56.569Z,7.22
2018-06-15T14:16:25.002Z,8.43
2018-06-15T14:18:56.968Z,7.20
2018-06-15T14:21:25.273Z,8.18
2018-06-15T14:23:53.805Z,9.20
2018-06-15T14:26:22.177Z,8.25
2018-06-15T14:28:51.348Z,8.08
2018-06-15T14:31:20.410Z,7.90
2018-06-15T14:33:48.754Z,8.25
2018-06-15T14:36:18.117Z,8.80
2018-06-15T14:38:47.234Z,7.20
2018-06-15T14:41:15.602Z,7.12
2018-06-15T14:43:44.017Z,9.10
2018-06-15T14:46:12.475Z,8.68
2018-06-15T14:48:41.128Z,11.10
2018-06-15T14:51:09.426Z,7.80
2018-06-15T14:53:37.784Z,8.28
2018-06-15T14:56:06.065Z,10.35
2018-06-15T14:58:34.525Z,7.70
2018-06-15T15:01:03.997Z,8.80
2018-06-15T15:03:32.333Z,8.68
2018-06-15T15:06:01.353Z,7.75
2018-06-15T15:08:29.798Z,8.13
2018-06-15T15:10:58.176Z,7.53
2018-06-15T15:13:26.498Z,9.20
2018-06-15T15:15:56.067Z,7.92
2018-06-15T15:18:25.019Z,7.30
2018-06-15T15:20:53.482Z,7.47
2018-06-15T15:23:22.278Z,7.83
2018-06-15T15:25:50.618Z,7.53
2018-06-15T15:28:18.936Z,7.67
2018-06-15T15:30:47.510Z,8.58
2018-06-15T15:33:16.779Z,8.13
2018-06-15T15:35:45.066Z,7.53
2018-06-15T15:38:13.897Z,8.13
2018-06-15T15:40:43.366Z,8.63
2018-06-15T15:43:11.786Z,8.10
2018-06-15T15:45:40.530Z,8.13
2018-06-15T15:48:09.326Z,8.75
2018-06-15T15:50:37.923Z,10.23
2018-06-15T15:53:06.177Z,8.53
2018-06-15T15:55:34.463Z,8.70
2018-06-15T15:58:02.801Z,8.50
2018-06-15T16:00:31.086Z,8.90
2018-06-15T16:02:59.541Z,8.28
2018-06-15T16:05:27.876Z,7.67
2018-06-15T16:07:57.333Z,8.28
2018-06-15T16:10:25.617Z,6.60
2018-06-15T16:12:53.916Z,8.53
2018-06-15T16:15:22.417Z,7.35
2018-06-15T16:17:52.166Z,8.73
2018-06-15T16:20:20.759Z,8.23
2018-06-15T16:22:49.295Z,7.25
2018-06-15T16:25:17.998Z,8.83
2018-06-15T16:27:46.903Z,8.30
2018-06-15T16:30:15.579Z,7.15
2018-06-15T16:32:45.274Z,8.00
2018-06-15T16:35:14.184Z,7.90
2018-06-15T16:37:42.798Z,7.92
2018-06-15T16:40:12.743Z,7.97
2018-06-15T16:42:41.246Z,8.58
2018-06-15T16:45:09.649Z,7.50
2018-06-15T16:47:38.029Z,7.25
2018-06-15T16:50:06.684Z,7.58
2018-06-15T16:52:35.480Z,7.58
2018-06-15T16:55:04.043Z,7.05
2018-06-15T16:57:34.610Z,7.75
2018-06-15T17:00:02.969Z,7.72
2018-06-15T17:02:32.410Z,7.87
2018-06-15T17:05:01.006Z,7.80
2018-06-15T17:07:30.009Z,8.55
2018-06-15T17:09:58.426Z,7.45
2018-06-15T17:12:27.344Z,8.70
2018-06-15T17:14:56.007Z,8.63
2018-06-15T17:17:27.944Z,6.95
2018-06-15T17:19:57.661Z,7.22
2018-06-15T17:22:27.541Z,7.37
2018-06-15T17:24:56.043Z,7.08
2018-06-15T17:27:24.723Z,6.97
2018-06-15T17:29:53.607Z,7.30
2018-06-15T17:32:23.413Z,7.10
2018-06-15T17:34:52.223Z,7.58
2018-06-15T17:37:21.158Z,6.92
2018-06-15T17:39:49.733Z,7.35
2018-06-15T17:42:19.323Z,7.60
2018-06-15T17:44:48.206Z,6.80
2018-06-15T17:47:16.717Z,8.03
2018-06-15T17:49:46.039Z,7.17
2018-06-15T17:52:15.047Z,7.42
2018-06-15T17:54:44.178Z,6.92
2018-06-15T17:57:13.149Z,6.97
2018-06-15T17:59:41.927Z,6.78
2018-06-15T18:02:11.857Z,7.45
2018-06-15T18:04:44.632Z,6.95
2018-06-15T18:07:13.991Z,7.45
2018-06-15T18:09:43.334Z,7.83
2018-06-15T18:12:12.218Z,7.20
2018-06-15T18:14:42.711Z,7.65
2018-06-15T18:17:13.095Z,6.60
2018-06-15T18:19:42.035Z,6.75
2018-06-15T18:22:13.326Z,7.12
2018-06-15T18:24:46.546Z,6.55
2018-06-15T18:27:15.670Z,7.33
2018-06-15T18:29:45.493Z,6.40
2018-06-15T18:32:14.991Z,6.55
2018-06-15T18:34:43.725Z,6.65
2018-06-15T18:37:12.784Z,6.15
2018-06-15T18:39:42.274Z,7.00
2018-06-15T18:42:12.233Z,6.33
2018-06-15T18:44:41.263Z,7.08
2018-06-15T18:47:10.194Z,7.67
2018-06-15T18:49:40.334Z,7.75
2018-06-15T18:52:10.228Z,7.22
2018-06-15T18:54:41.017Z,8.40
2018-06-15T18:57:10.621Z,7.35
2018-06-15T18:59:51.092Z,6.90
2018-06-15T19:02:20.838Z,7.15
2018-06-15T19:04:51.602Z,7.37
2018-06-15T19:07:20.234Z,7.58
2018-06-15T19:09:50.652Z,7.83
2018-06-15T19:12:19.308Z,7.60
2018-06-15T19:14:51.277Z,7.47
2018-06-15T19:17:21.149Z,7.83
2018-06-15T19:19:49.730Z,7.30
2018-06-15T19:22:19.138Z,7.83
2018-06-15T19:24:58.439Z,7.23
2018-06-15T19:27:41.919Z,7.30
2018-06-15T19:30:11.778Z,7.47
2018-06-15T19:32:41.430Z,7.53
2018-06-15T19:35:10.738Z,7.10
2018-06-15T19:37:40.735Z,7.43
2018-06-15T19:40:09.545Z,7.37
2018-06-15T19:42:38.147Z,7.97
2018-06-15T19:45:06.568Z,7.50
2018-06-15T19:47:35.203Z,7.30
2018-06-15T19:50:03.782Z,8.83
2018-06-15T19:52:32.112Z,7.53
2018-06-15T19:55:00.387Z,8.60
2018-06-15T19:57:28.687Z,7.37
2018-06-15T19:59:57.482Z,7.80
2018-06-15T20:02:27.214Z,7.10
2018-06-15T20:04:55.604Z,7.83
2018-06-15T20:07:25.027Z,7.37
2018-06-15T20:09:53.535Z,7.30
2018-06-15T20:12:21.910Z,7.20
2018-06-15T20:14:50.575Z,7.67
2018-06-15T20:17:18.904Z,7.80
2018-06-15T20:19:59.860Z,7.77
2018-06-15T20:22:29.887Z,7.43
2018-06-15T20:25:00.623Z,8.73
2018-06-15T20:27:28.910Z,7.80
2018-06-15T20:29:57.225Z,7.77
2018-06-15T20:32:25.627Z,9.63
2018-06-15T20:34:55.504Z,7.97
2018-06-15T20:37:23.758Z,7.40
2018-06-15T20:39:52.392Z,8.77
2018-06-15T20:42:22.578Z,7.57
2018-06-15T20:44:50.930Z,7.50
2018-06-15T20:47:19.212Z,8.00
2018-06-15T20:49:47.545Z,7.53
2018-06-15T20:52:16.360Z,8.80
2018-06-15T20:54:44.711Z,8.03
2018-06-15T20:57:13.198Z,7.57
2018-06-15T20:59:41.635Z,8.17
2018-06-15T21:02:09.894Z,7.60
2018-06-15T21:04:38.742Z,8.17
2018-06-15T21:07:07.763Z,8.80
2018-06-15T21:09:36.146Z,8.80
2018-06-15T21:12:04.407Z,9.53
2018-06-15T21:14:32.727Z,9.27
2018-06-15T21:17:00.999Z,10.30
2018-06-15T21:19:32.380Z,10.53
2018-06-15T21:22:01.324Z,9.50
2018-06-15T21:24:29.727Z,8.90
2018-06-15T21:26:58.030Z,9.40
2018-06-15T21:29:32.827Z,8.13
2018-06-15T21:32:01.185Z,10.17
2018-06-15T21:34:29.527Z,8.60
2018-06-15T21:36:57.872Z,9.00
2018-06-15T21:39:26.281Z,7.83
2018-06-15T21:41:54.599Z,8.07
2018-06-15T21:44:22.927Z,7.90
2018-06-15T21:46:51.301Z,8.87
2018-06-15T21:49:19.718Z,8.27
2018-06-15T21:51:48.094Z,7.90
2018-06-15T21:54:16.457Z,7.20
2018-06-15T21:56:44.735Z,9.40
2018-06-15T21:59:13.079Z,10.10
2018-06-15T22:01:41.365Z,8.50
2018-06-15T22:04:09.692Z,8.40
2018-06-15T22:06:38.022Z,7.73
2018-06-15T22:09:07.570Z,7.63
2018-06-15T22:11:35.915Z,7.50
2018-06-15T22:14:04.275Z,7.70
2018-06-15T22:16:37.899Z,7.37
2018-06-15T22:19:06.222Z,7.70
2018-06-15T22:21:34.539Z,7.23
2018-06-15T22:24:02.879Z,8.10
2018-06-15T22:26:31.186Z,8.07
2018-06-15T22:28:59.618Z,7.63
2018-06-15T22:31:27.967Z,7.50
2018-06-15T22:33:56.396Z,7.07
2018-06-15T22:36:35.683Z,7.60
2018-06-15T22:39:22.253Z,7.73
2018-06-15T22:41:51.069Z,10.37
2018-06-15T22:44:25.625Z,9.83
2018-06-15T22:46:56.127Z,9.33
2018-06-15T22:49:24.385Z,8.43
2018-06-15T22:51:52.889Z,8.23
2018-06-15T22:57:14.134Z,8.70
2018-06-15T22:59:42.442Z,7.70
2018-06-15T23:02:10.776Z,8.70
2018-06-15T23:04:39.138Z,7.63
2018-06-15T23:07:07.462Z,7.83
2018-06-15T23:09:35.768Z,8.63
2018-06-15T23:12:04.335Z,8.83
2018-06-15T23:14:32.628Z,8.63
2018-06-15T23:17:00.969Z,7.47
2018-06-15T23:19:29.266Z,7.37
2018-06-15T23:21:57.596Z,9.00
2018-06-15T23:24:25.915Z,8.03
2018-06-15T23:26:54.390Z,7.87
2018-06-15T23:29:22.691Z,8.30
2018-06-15T23:31:51.058Z,7.83
2018-06-15T23:34:19.357Z,9.13
2018-06-15T23:36:47.816Z,7.80
2018-06-15T23:39:16.116Z,7.73
2018-06-15T23:41:44.451Z,8.20
2018-06-15T23:44:13.710Z,7.87
2018-06-15T23:46:42.107Z,7.77
2018-06-15T23:49:10.394Z,9.20
2018-06-15T23:51:38.740Z,8.90
2018-06-15T23:54:07.022Z,9.23
2018-06-15T23:56:35.330Z,8.73
2018-06-15T23:59:03.627Z,11.07
